Time;durP1;ratioP1;P1;durP2;ratioP2;P2;SDS_P1;SDS_P2;PMS_P1;PMS_P2;Temp;Humidity;BMP_temperature;BMP_pressure;BME280_temperature;BME280_humidity;BME280_pressure;Samples;Min_cycle;Max_cycle;Signal;HPM_P1;HPM_P2
2022/12/04 00:02:01;;;;;;;8.55;5.97;;;5.80;99.90;;;;;;5029832;28;20794;-76
2022/12/04 00:04:28;;;;;;;10.38;6.70;;;5.80;99.90;;;;;;5044791;28;20140;-76
2022/12/04 00:06:54;;;;;;;9.68;7.28;;;5.80;99.90;;;;;;5061238;28;20114;-76
2022/12/04 00:09:24;;;;;;;8.13;5.82;;;5.80;99.90;;;;;;5030226;28;20053;-76
2022/12/04 00:11:51;;;;;;;8.25;5.95;;;5.90;99.90;;;;;;5061762;28;20052;-76
2022/12/04 00:14:18;;;;;;;9.90;6.55;;;5.80;99.90;;;;;;5062916;28;20049;-76
2022/12/04 00:16:44;;;;;;;10.52;6.75;;;5.80;99.90;;;;;;5061452;28;20079;-76
2022/12/04 00:19:11;;;;;;;8.20;6.38;;;5.80;99.90;;;;;;5044800;28;20048;-76
2022/12/04 00:21:38;;;;;;;7.43;5.82;;;5.90;99.90;;;;;;5028637;28;20055;-75
2022/12/04 00:24:05;;;;;;;9.52;7.25;;;5.90;99.90;;;;;;5045698;28;20049;-75
2022/12/04 00:26:32;;;;;;;6.95;5.43;;;5.90;99.90;;;;;;5044955;28;20132;-76
2022/12/04 00:28:59;;;;;;;8.30;5.78;;;5.90;99.90;;;;;;5041134;28;20044;-76
2022/12/04 00:31:26;;;;;;;8.60;6.22;;;5.90;99.90;;;;;;5028977;28;20053;-76
2022/12/04 00:33:53;;;;;;;8.75;6.40;;;5.80;99.90;;;;;;5044276;28;20131;-76
2022/12/04 00:36:21;;;;;;;8.50;5.50;;;5.80;99.90;;;;;;5028154;28;20128;-76
2022/12/04 00:38:48;;;;;;;9.27;6.53;;;5.90;99.90;;;;;;5028620;28;20052;-75
2022/12/04 00:41:16;;;;;;;9.15;7.22;;;5.90;99.90;;;;;;5061974;28;20496;-76
2022/12/04 00:43:44;;;;;;;11.15;6.90;;;5.90;99.90;;;;;;5027688;28;20049;-76
2022/12/04 00:46:11;;;;;;;8.23;5.65;;;5.80;99.90;;;;;;5045029;28;20364;-75
2022/12/04 00:48:38;;;;;;;8.88;6.53;;;5.90;99.90;;;;;;5027325;28;20049;-76
2022/12/04 00:51:10;;;;;;;9.38;6.68;;;5.90;99.90;;;;;;5028236;28;20203;-76
2022/12/04 00:53:37;;;;;;;11.70;8.20;;;5.80;99.90;;;;;;5028555;28;20496;-76
2022/12/04 00:56:08;;;;;;;11.65;7.40;;;5.80;99.90;;;;;;5060675;28;20354;-75
2022/12/04 00:58:35;;;;;;;9.80;6.95;;;5.80;99.90;;;;;;5044068;28;20605;-75
2022/12/04 01:01:06;;;;;;;10.73;6.90;;;5.80;99.90;;;;;;5045067;28;20045;-76
2022/12/04 01:03:33;;;;;;;8.10;5.85;;;5.80;99.90;;;;;;5060496;28;20102;-75
2022/12/04 01:06:00;;;;;;;9.15;6.70;;;5.80;99.90;;;;;;5043762;28;20056;-75
2022/12/04 01:08:27;;;;;;;8.30;6.22;;;5.80;99.90;;;;;;5062255;28;20048;-76
2022/12/04 01:10:54;;;;;;;11.82;7.55;;;5.90;99.90;;;;;;5062471;28;20048;-76
2022/12/04 01:13:21;;;;;;;9.18;6.40;;;5.90;99.90;;;;;;5059990;28;20128;-76
2022/12/04 01:15:48;;;;;;;9.05;6.28;;;5.80;99.90;;;;;;5060581;28;20049;-76
2022/12/04 01:18:15;;;;;;;8.18;5.80;;;5.80;99.90;;;;;;5043864;28;20124;-76
2022/12/04 01:20:49;;;;;;;8.50;6.28;;;5.90;99.90;;;;;;5043822;28;20076;-76
2022/12/04 01:23:16;;;;;;;8.80;6.85;;;5.90;99.90;;;;;;5026907;28;20044;-77
2022/12/04 01:25:51;;;;;;;8.98;6.95;;;5.80;99.90;;;;;;5026545;28;20041;-76
2022/12/04 01:28:17;;;;;;;9.35;6.47;;;5.80;99.90;;;;;;5054673;28;20152;-76
2022/12/04 01:30:44;;;;;;;8.05;6.15;;;5.80;99.90;;;;;;5041093;28;20044;-75
2022/12/04 01:33:11;;;;;;;9.00;6.90;;;5.80;99.90;;;;;;5023503;28;20159;-76
2022/12/04 01:35:38;;;;;;;9.35;6.28;;;5.80;99.90;;;;;;5031162;28;20063;-75
2022/12/04 01:38:04;;;;;;;10.02;7.43;;;5.80;99.90;;;;;;5027203;28;20052;-76
2022/12/04 01:40:31;;;;;;;9.63;7.15;;;5.80;99.90;;;;;;5061255;28;20531;-76
2022/12/04 01:42:58;;;;;;;10.10;6.95;;;5.80;99.90;;;;;;5042583;28;20056;-75
2022/12/04 01:45:49;;;;;;;10.82;7.20;;;5.80;99.90;;;;;;5061014;28;20440;-76
2022/12/04 01:48:26;;;;;;;10.52;7.40;;;5.80;99.90;;;;;;5060058;28;20056;-76
2022/12/04 01:50:57;;;;;;;9.52;6.90;;;5.80;99.90;;;;;;5027082;28;20088;-76
2022/12/04 01:53:23;;;;;;;8.40;6.00;;;5.70;99.90;;;;;;5027667;28;20119;-76
2022/12/04 01:55:50;;;;;;;9.52;6.55;;;5.80;99.90;;;;;;5060299;28;20121;-75
2022/12/04 01:58:19;;;;;;;9.50;7.03;;;5.80;99.90;;;;;;5045773;28;20056;-76
2022/12/04 02:00:47;;;;;;;8.95;6.03;;;5.80;99.90;;;;;;5048799;28;20458;-75
2022/12/04 02:03:17;;;;;;;7.72;5.50;;;5.80;99.90;;;;;;5063981;28;20053;-76
2022/12/04 02:05:44;;;;;;;9.35;6.57;;;5.80;99.90;;;;;;5047595;28;20127;-75
2022/12/04 02:08:10;;;;;;;8.77;5.90;;;5.80;99.90;;;;;;5047156;28;20059;-75
2022/12/04 02:10:48;;;;;;;9.00;6.47;;;5.80;99.90;;;;;;5048569;28;20352;-76
2022/12/04 02:13:39;;;;;;;11.48;7.40;;;5.80;99.90;;;;;;5031421;28;20480;-76
2022/12/04 02:16:18;;;;;;;8.10;5.93;;;5.80;99.90;;;;;;5048520;28;20095;-76
2022/12/04 02:18:59;;;;;;;8.63;6.03;;;5.80;99.90;;;;;;5046860;28;20052;-75
2022/12/04 02:21:36;;;;;;;9.57;6.82;;;5.80;99.90;;;;;;5047743;28;20054;-78
2022/12/04 02:24:46;;;;;;;9.70;6.93;;;5.80;99.90;;;;;;5064024;28;20159;-78
2022/12/04 02:27:40;;;;;;;7.47;5.78;;;5.80;99.90;;;;;;5005956;28;20108;-78
2022/12/04 02:30:11;;;;;;;8.82;6.13;;;5.80;99.90;;;;;;5022071;28;20049;-78
2022/12/04 02:32:42;;;;;;;8.43;6.22;;;5.90;99.90;;;;;;5006499;28;20211;-76
2022/12/04 02:35:17;;;;;;;9.25;6.50;;;5.80;99.90;;;;;;5065427;28;20447;-76
2022/12/04 02:37:51;;;;;;;8.38;5.95;;;5.80;99.90;;;;;;5065150;28;20048;-78
2022/12/04 02:40:29;;;;;;;8.35;6.28;;;5.80;99.90;;;;;;5049829;28;20054;-76
2022/12/04 02:43:06;;;;;;;8.57;6.53;;;5.80;99.90;;;;;;5031424;28;20052;-77
2022/12/04 02:45:37;;;;;;;9.48;6.85;;;5.80;99.90;;;;;;5049416;28;20682;-77
2022/12/04 02:48:05;;;;;;;12.40;8.23;;;5.80;99.90;;;;;;5048376;28;20677;-78
2022/12/04 02:50:33;;;;;;;12.75;8.65;;;5.80;99.90;;;;;;5048920;28;20066;-77
2022/12/04 02:53:08;;;;;;;11.55;7.78;;;5.70;99.90;;;;;;5048851;28;20088;-77
2022/12/04 02:55:38;;;;;;;10.43;8.02;;;5.70;99.90;;;;;;5048291;28;20506;-76
2022/12/04 02:58:27;;;;;;;9.70;7.57;;;5.70;99.90;;;;;;5046083;28;20090;-76
2022/12/04 03:00:54;;;;;;;10.48;7.20;;;5.70;99.90;;;;;;5064425;28;20055;-76
2022/12/04 03:03:22;;;;;;;12.10;7.53;;;5.70;99.90;;;;;;5047375;28;20058;-76
2022/12/04 03:06:05;;;;;;;10.32;7.63;;;5.70;99.90;;;;;;5047225;28;20135;-76
2022/12/04 03:08:43;;;;;;;12.52;8.18;;;5.70;99.90;;;;;;5030946;28;20083;-75
2022/12/04 03:11:09;;;;;;;11.65;7.53;;;5.60;99.90;;;;;;5048210;28;20118;-76
2022/12/04 03:13:46;;;;;;;10.95;8.15;;;5.60;99.90;;;;;;5046025;28;20431;-76
2022/12/04 03:16:17;;;;;;;10.38;7.28;;;5.60;99.90;;;;;;5047446;28;20040;-76
2022/12/04 03:18:47;;;;;;;12.18;8.05;;;5.60;99.90;;;;;;5045867;28;20054;-76
2022/12/04 03:21:17;;;;;;;8.77;7.00;;;5.60;99.90;;;;;;5030990;28;20124;-76
2022/12/04 03:23:47;;;;;;;10.27;6.72;;;5.60;99.90;;;;;;5030899;28;20135;-76
2022/12/04 03:26:19;;;;;;;11.93;7.32;;;5.60;99.90;;;;;;5047746;28;20054;-76
2022/12/04 03:29:01;;;;;;;8.32;6.07;;;5.70;99.90;;;;;;5062884;28;20135;-75
2022/12/04 03:31:41;;;;;;;8.65;6.15;;;5.70;99.90;;;;;;5031669;28;20044;-76
2022/12/04 03:34:07;;;;;;;8.65;6.25;;;5.60;99.90;;;;;;5062840;28;20061;-76
2022/12/04 03:36:36;;;;;;;7.20;5.47;;;5.70;99.90;;;;;;5063475;28;20048;-76
2022/12/04 03:39:18;;;;;;;9.32;6.40;;;5.70;99.90;;;;;;5030011;28;20127;-76
2022/12/04 03:42:07;;;;;;;8.25;6.03;;;5.70;99.90;;;;;;5047460;28;20056;-76
2022/12/04 03:44:38;;;;;;;8.80;5.90;;;5.70;99.90;;;;;;5062653;28;20159;-75
2022/12/04 03:47:16;;;;;;;9.63;6.03;;;5.60;99.90;;;;;;5046986;28;20048;-76
2022/12/04 03:50:08;;;;;;;7.75;6.05;;;5.60;99.90;;;;;;5062621;28;20052;-75
2022/12/04 03:52:47;;;;;;;11.65;8.10;;;5.60;99.90;;;;;;5057623;28;20045;-75
2022/12/04 03:55:23;;;;;;;12.57;8.38;;;5.60;99.90;;;;;;5025688;28;1105551;-76
2022/12/04 03:57:50;;;;;;;12.15;8.85;;;5.50;99.90;;;;;;5046572;28;20052;-75
2022/12/04 04:00:20;;;;;;;10.13;7.10;;;5.50;99.90;;;;;;5032062;28;20044;-76
2022/12/04 04:02:58;;;;;;;9.25;6.82;;;5.50;99.90;;;;;;5030871;28;20363;-75
2022/12/04 04:05:26;;;;;;;9.85;7.75;;;5.50;99.90;;;;;;5048760;28;20048;-76
2022/12/04 04:08:24;;;;;;;10.50;7.50;;;5.50;99.90;;;;;;5046861;28;20048;-75
2022/12/04 04:10:50;;;;;;;11.90;9.10;;;5.50;99.90;;;;;;5064113;28;20048;-76
2022/12/04 04:24:40;;;;;;;11.88;7.75;;;5.50;99.90;;;;;;5064073;28;20068;-76
2022/12/04 04:27:07;;;;;;;13.07;9.23;;;5.40;99.90;;;;;;5063187;28;20071;-76
2022/12/04 04:29:33;;;;;;;13.52;9.43;;;5.40;99.90;;;;;;5029664;28;20161;-76
2022/12/04 04:32:29;;;;;;;14.88;9.27;;;5.40;99.90;;;;;;5031085;28;20479;-75
2022/12/04 04:35:04;;;;;;;12.18;8.75;;;5.40;99.90;;;;;;5049205;28;20396;-76
2022/12/04 04:38:08;;;;;;;10.70;7.40;;;5.40;99.90;;;;;;5063097;28;20576;-76
2022/12/04 04:41:05;;;;;;;10.38;7.22;;;5.40;99.90;;;;;;5063607;28;20058;-75
2022/12/04 04:43:55;;;;;;;10.70;7.75;;;5.50;99.90;;;;;;5060990;28;20099;-75
2022/12/04 04:46:24;;;;;;;9.52;6.70;;;5.50;99.90;;;;;;5063176;28;20515;-76
2022/12/04 04:48:52;;;;;;;13.00;8.77;;;5.50;99.90;;;;;;5045474;28;20048;-76
2022/12/04 04:51:19;;;;;;;11.00;8.63;;;5.50;99.90;;;;;;5046688;28;20052;-76
2022/12/04 04:53:48;;;;;;;13.90;9.02;;;5.50;99.90;;;;;;5029447;28;20127;-76
2022/12/04 04:56:15;;;;;;;9.85;6.90;;;5.40;99.90;;;;;;5046809;28;20045;-76
2022/12/04 04:58:42;;;;;;;10.13;7.40;;;5.40;99.90;;;;;;5028520;28;20053;-75
2022/12/04 05:01:16;;;;;;;10.50;7.13;;;5.50;99.90;;;;;;5046647;28;20377;-76
2022/12/04 05:03:43;;;;;;;11.35;7.95;;;5.50;99.90;;;;;;5029341;28;20059;-76
2022/12/04 05:06:10;;;;;;;9.25;6.80;;;5.50;99.90;;;;;;5046423;28;20055;-76
2022/12/04 05:08:37;;;;;;;11.40;7.80;;;5.50;99.90;;;;;;5042688;28;20045;-76
2022/12/04 05:11:03;;;;;;;11.65;8.48;;;5.50;99.90;;;;;;5026275;28;20057;-76
2022/12/04 05:13:30;;;;;;;9.13;7.07;;;5.50;99.90;;;;;;5043951;28;20045;-76
2022/12/04 05:16:02;;;;;;;12.38;7.13;;;5.50;99.90;;;;;;5046487;28;20044;-76
2022/12/04 05:18:28;;;;;;;11.63;8.88;;;5.50;99.90;;;;;;5045267;28;20102;-76
2022/12/04 05:20:55;;;;;;;12.32;8.70;;;5.50;99.90;;;;;;5045744;28;20124;-76
2022/12/04 05:23:22;;;;;;;13.85;9.70;;;5.40;99.90;;;;;;5046526;28;20409;-76
2022/12/04 05:25:49;;;;;;;11.80;8.30;;;5.40;99.90;;;;;;5046404;28;20486;-76
2022/12/04 05:28:15;;;;;;;14.32;10.38;;;5.50;99.90;;;;;;5028267;28;20044;-76
2022/12/04 05:30:42;;;;;;;11.65;8.60;;;5.50;99.90;;;;;;5046264;28;20052;-76
2022/12/04 05:33:09;;;;;;;11.07;7.65;;;5.50;99.90;;;;;;5045594;28;20060;-76
2022/12/04 05:35:36;;;;;;;13.98;8.63;;;5.50;99.90;;;;;;5045567;28;20459;-76
2022/12/04 05:38:02;;;;;;;12.60;8.77;;;5.50;99.90;;;;;;5045476;28;20079;-76
2022/12/04 05:40:29;;;;;;;13.05;8.75;;;5.50;99.90;;;;;;5046320;28;20055;-76
2022/12/04 05:42:56;;;;;;;11.60;7.45;;;5.50;99.90;;;;;;5061398;28;20075;-75
2022/12/04 05:45:23;;;;;;;10.88;8.13;;;5.50;99.90;;;;;;5063966;28;20076;-76
2022/12/04 05:47:49;;;;;;;10.88;7.57;;;5.50;99.90;;;;;;5061783;28;20142;-76
2022/12/04 05:50:16;;;;;;;9.70;6.80;;;5.50;99.90;;;;;;5029253;28;20052;-76
2022/12/04 05:52:43;;;;;;;8.18;6.03;;;5.60;99.90;;;;;;5045564;28;20490;-75
2022/12/04 05:55:10;;;;;;;8.18;5.70;;;5.60;99.90;;;;;;5026129;28;20067;-75
2022/12/04 05:57:36;;;;;;;8.95;6.55;;;5.60;99.90;;;;;;5039126;28;20072;-76
2022/12/04 06:00:04;;;;;;;8.50;5.95;;;5.60;99.90;;;;;;5044359;28;20060;-75
2022/12/04 06:02:32;;;;;;;9.52;6.80;;;5.60;99.90;;;;;;5055801;28;20538;-75
2022/12/04 06:05:00;;;;;;;8.90;6.25;;;5.70;99.90;;;;;;5053020;28;20051;-76
2022/12/04 06:07:26;;;;;;;8.10;5.43;;;5.70;99.90;;;;;;5059309;28;20396;-76
2022/12/04 06:09:54;;;;;;;7.70;5.93;;;5.70;99.90;;;;;;5027342;28;20055;-76
2022/12/04 06:12:21;;;;;;;8.38;6.28;;;5.70;99.90;;;;;;5059616;28;20049;-76
2022/12/04 06:14:47;;;;;;;7.07;5.55;;;5.70;99.90;;;;;;5041744;28;20059;-76
2022/12/04 06:17:14;;;;;;;8.98;6.18;;;5.70;99.90;;;;;;5038303;28;20314;-76
2022/12/04 06:19:41;;;;;;;8.38;6.20;;;5.70;99.90;;;;;;5056139;28;20087;-75
2022/12/04 06:22:08;;;;;;;9.32;6.35;;;5.70;99.90;;;;;;5036547;28;20052;-76
2022/12/04 06:24:34;;;;;;;9.98;6.68;;;5.70;99.90;;;;;;5018954;28;20048;-76
2022/12/04 06:27:01;;;;;;;12.70;8.60;;;5.70;99.90;;;;;;5049708;28;20560;-76
2022/12/04 06:29:48;;;;;;;11.45;8.13;;;5.60;99.90;;;;;;5055843;28;20046;-75
2022/12/04 06:32:15;;;;;;;10.23;7.40;;;5.60;99.90;;;;;;5056766;28;20422;-76
2022/12/04 06:35:11;;;;;;;9.07;6.75;;;5.70;99.90;;;;;;5056253;28;20124;-76
2022/12/04 06:37:38;;;;;;;7.93;5.57;;;5.60;99.90;;;;;;5056569;28;20535;-76
2022/12/04 06:40:05;;;;;;;9.70;6.68;;;5.70;99.90;;;;;;5058434;28;20075;-76
2022/12/04 06:42:32;;;;;;;10.93;7.72;;;5.70;99.90;;;;;;5039097;28;20052;-75
2022/12/04 06:44:59;;;;;;;9.57;7.28;;;5.70;99.90;;;;;;5043699;28;20064;-76
2022/12/04 06:47:26;;;;;;;10.43;7.60;;;5.70;99.90;;;;;;5060289;28;20083;-76
2022/12/04 06:49:52;;;;;;;10.63;7.68;;;5.70;99.90;;;;;;5059768;28;20135;-75
2022/12/04 06:52:20;;;;;;;10.70;7.00;;;5.70;99.90;;;;;;5036576;28;20503;-76
2022/12/04 06:54:47;;;;;;;10.00;6.85;;;5.70;99.90;;;;;;5034272;28;20499;-76
2022/12/04 06:57:13;;;;;;;9.25;6.75;;;5.70;99.90;;;;;;5055126;28;20140;-76
2022/12/04 06:59:40;;;;;;;9.82;7.03;;;5.70;99.90;;;;;;5038845;28;20610;-76
2022/12/04 07:02:08;;;;;;;8.05;6.60;;;5.70;99.90;;;;;;5056293;28;20064;-76
2022/12/04 07:04:35;;;;;;;9.75;6.93;;;5.70;99.90;;;;;;5059153;28;20049;-76
2022/12/04 07:07:01;;;;;;;10.48;7.60;;;5.70;99.90;;;;;;5060792;28;20090;-76
2022/12/04 07:09:28;;;;;;;9.55;6.50;;;5.60;99.90;;;;;;5040382;28;20062;-76
2022/12/04 07:11:55;;;;;;;9.18;6.82;;;5.60;99.90;;;;;;5058268;28;20044;-76
2022/12/04 07:14:21;;;;;;;10.00;7.10;;;5.60;99.90;;;;;;5041351;28;20049;-75
2022/12/04 07:16:48;;;;;;;10.95;7.50;;;5.70;99.90;;;;;;5043029;28;20048;-76
2022/12/04 07:19:15;;;;;;;11.38;8.10;;;5.60;99.90;;;;;;5058280;28;20113;-76
2022/12/04 07:21:42;;;;;;;11.18;7.25;;;5.60;99.90;;;;;;5059426;28;20131;-75
2022/12/04 07:24:14;;;;;;;10.15;6.63;;;5.60;99.90;;;;;;5060109;28;20086;-75
2022/12/04 07:26:41;;;;;;;10.00;6.85;;;5.60;99.90;;;;;;5044161;28;20064;-76
2022/12/04 07:29:09;;;;;;;8.50;5.95;;;5.60;99.90;;;;;;5059195;28;20056;-76
2022/12/04 07:31:36;;;;;;;8.30;5.85;;;5.60;99.90;;;;;;5029890;28;20067;-76
2022/12/04 07:34:03;;;;;;;7.78;5.30;;;5.60;99.90;;;;;;5039986;28;20036;-76
2022/12/04 07:36:30;;;;;;;6.88;5.20;;;5.60;99.90;;;;;;5041410;28;20048;-76
2022/12/04 07:38:57;;;;;;;8.88;5.47;;;5.60;99.90;;;;;;5054729;28;20052;-76
2022/12/04 07:41:24;;;;;;;9.73;6.60;;;5.60;99.90;;;;;;5051076;28;20060;-76
2022/12/04 07:43:50;;;;;;;9.70;6.85;;;5.60;99.90;;;;;;5042817;28;20148;-76
2022/12/04 07:46:19;;;;;;;7.97;6.03;;;5.60;99.90;;;;;;5036543;28;20507;-76
2022/12/04 07:48:46;;;;;;;8.93;5.68;;;5.60;99.90;;;;;;5047487;28;20072;-76
2022/12/04 07:51:19;;;;;;;8.10;5.68;;;5.60;99.90;;;;;;5046189;28;20110;-76
2022/12/04 07:53:46;;;;;;;9.23;6.25;;;5.60;99.90;;;;;;5049097;28;20066;-76
2022/12/04 07:56:13;;;;;;;8.48;6.07;;;5.60;99.90;;;;;;5050451;28;20048;-76
2022/12/04 07:58:40;;;;;;;8.55;5.68;;;5.60;99.90;;;;;;5034089;28;20172;-76
2022/12/04 08:01:18;;;;;;;8.65;5.70;;;5.60;99.90;;;;;;5039570;28;20156;-76
2022/12/04 08:03:48;;;;;;;9.25;6.30;;;5.60;99.90;;;;;;5035121;28;20056;-76
2022/12/04 08:06:20;;;;;;;7.65;5.32;;;5.50;99.90;;;;;;5032471;28;20049;-76
2022/12/04 08:08:47;;;;;;;8.52;6.72;;;5.60;99.90;;;;;;5022629;28;20128;-76
2022/12/04 08:11:16;;;;;;;9.57;6.20;;;5.50;99.90;;;;;;5039195;28;20524;-76
2022/12/04 08:13:43;;;;;;;9.00;6.18;;;5.60;99.90;;;;;;5053547;28;20487;-76
2022/12/04 08:16:10;;;;;;;9.07;5.60;;;5.60;99.90;;;;;;5032981;28;20055;-76
2022/12/04 08:18:37;;;;;;;8.02;5.45;;;5.60;99.90;;;;;;5034226;28;20053;-76
2022/12/04 08:21:09;;;;;;;7.03;5.60;;;5.70;99.90;;;;;;5050828;28;20153;-76
2022/12/04 08:23:37;;;;;;;7.45;5.20;;;5.70;99.90;;;;;;5053597;28;20059;-77
2022/12/04 08:26:04;;;;;;;7.43;4.80;;;5.70;99.90;;;;;;5036898;28;20058;-76
2022/12/04 08:28:31;;;;;;;5.95;4.00;;;5.70;99.90;;;;;;5030991;28;20060;-77
2022/12/04 08:31:14;;;;;;;6.45;4.30;;;5.70;99.90;;;;;;5038767;28;20045;-77
2022/12/04 08:33:41;;;;;;;6.43;4.40;;;5.70;99.90;;;;;;5049820;28;20467;-76
2022/12/04 08:36:10;;;;;;;8.32;5.05;;;5.70;99.90;;;;;;5038122;28;20063;-77
2022/12/04 08:38:37;;;;;;;5.40;4.20;;;5.70;99.90;;;;;;5038601;28;20052;-76
2022/12/04 08:41:05;;;;;;;6.65;4.47;;;5.60;99.90;;;;;;5034500;28;20052;-77
2022/12/04 08:43:31;;;;;;;5.47;3.40;;;5.70;99.90;;;;;;5036891;28;20049;-77
2022/12/04 08:46:03;;;;;;;7.78;3.92;;;5.70;99.90;;;;;;5021644;28;20048;-77
2022/12/04 08:48:30;;;;;;;6.55;4.60;;;5.70;99.90;;;;;;5051604;28;20373;-77
2022/12/04 08:50:57;;;;;;;5.82;4.32;;;5.70;99.90;;;;;;5037792;28;20048;-77
2022/12/04 08:53:24;;;;;;;5.00;3.85;;;5.70;99.90;;;;;;5054518;28;20394;-77
2022/12/04 08:55:51;;;;;;;6.30;4.82;;;5.70;99.90;;;;;;5040988;28;20363;-77
2022/12/04 08:58:18;;;;;;;5.93;4.13;;;5.70;99.90;;;;;;5053985;28;20048;-77
2022/12/04 09:00:45;;;;;;;6.00;4.20;;;5.70;99.90;;;;;;5039818;28;20656;-77
2022/12/04 09:03:13;;;;;;;5.85;4.07;;;5.70;99.90;;;;;;5050865;28;20060;-77
2022/12/04 09:05:40;;;;;;;5.63;3.85;;;5.70;99.90;;;;;;5037386;28;20106;-77
2022/12/04 09:08:07;;;;;;;5.35;3.65;;;5.70;99.90;;;;;;5034719;28;20167;-77
2022/12/04 09:10:35;;;;;;;6.63;4.40;;;5.80;99.90;;;;;;5051811;28;20103;-77
2022/12/04 09:13:01;;;;;;;5.30;3.70;;;5.80;99.90;;;;;;5044653;28;20048;-77
2022/12/04 09:15:28;;;;;;;5.13;3.45;;;5.90;99.90;;;;;;5036610;28;20052;-77
2022/12/04 09:17:55;;;;;;;6.15;4.15;;;5.90;99.90;;;;;;5047286;28;20056;-77
2022/12/04 09:20:22;;;;;;;6.63;4.38;;;5.90;99.90;;;;;;5042694;28;20559;-77
2022/12/04 09:22:49;;;;;;;5.88;4.18;;;5.90;99.90;;;;;;5034158;28;20080;-77
2022/12/04 09:25:30;;;;;;;5.57;3.65;;;5.80;99.90;;;;;;5049095;28;20052;-77
2022/12/04 09:27:57;;;;;;;6.05;4.15;;;5.90;99.90;;;;;;5039022;28;20131;-77
2022/12/04 09:30:24;;;;;;;4.97;3.72;;;5.90;99.90;;;;;;5045301;28;20526;-77
2022/12/04 09:32:51;;;;;;;5.60;4.10;;;5.90;99.90;;;;;;5022815;28;20092;-77
2022/12/04 09:35:18;;;;;;;4.50;3.60;;;5.90;99.90;;;;;;5062378;28;20055;-77
2022/12/04 09:37:45;;;;;;;4.55;3.15;;;6.00;99.90;;;;;;5048059;28;20060;-77
2022/12/04 09:40:25;;;;;;;5.68;3.97;;;6.00;99.90;;;;;;5046279;28;20433;-77
2022/12/04 09:43:37;;;;;;;4.75;3.50;;;5.90;99.90;;;;;;5029413;28;20064;-77
2022/12/04 09:46:09;;;;;;;4.38;2.90;;;5.90;99.90;;;;;;5041814;28;20056;-77
2022/12/04 09:48:37;;;;;;;5.10;3.30;;;6.00;99.90;;;;;;5033131;28;20404;-77
2022/12/04 09:51:04;;;;;;;4.55;3.10;;;5.90;99.90;;;;;;5035639;28;20502;-77
2022/12/04 09:54:31;;;;;;;3.70;2.70;;;6.00;99.90;;;;;;5034348;28;20056;-78
2022/12/04 09:57:00;;;;;;;4.72;2.88;;;6.00;99.90;;;;;;5031667;28;20055;-78
2022/12/04 09:59:28;;;;;;;5.78;3.35;;;6.00;99.90;;;;;;5046413;28;20581;-78
2022/12/04 10:01:58;;;;;;;4.57;3.08;;;6.00;99.90;;;;;;5045391;28;20060;-78
2022/12/04 10:04:25;;;;;;;5.28;3.90;;;6.00;99.90;;;;;;5048618;28;20534;-78
2022/12/04 10:07:15;;;;;;;6.43;3.75;;;6.00;99.90;;;;;;5045101;28;20610;-77
2022/12/04 10:09:49;;;;;;;5.85;3.45;;;6.00;99.90;;;;;;5030316;28;20045;-78
2022/12/04 10:12:24;;;;;;;5.00;3.58;;;6.00;99.90;;;;;;5034358;28;20048;-78
2022/12/04 10:15:20;;;;;;;4.55;3.22;;;6.00;99.90;;;;;;5046204;28;20121;-77
2022/12/04 10:18:21;;;;;;;4.22;3.03;;;6.00;99.90;;;;;;5048837;28;20059;-77
2022/12/04 10:21:19;;;;;;;4.65;2.88;;;6.10;99.90;;;;;;5043291;28;20102;-77
2022/12/04 10:23:58;;;;;;;4.35;3.03;;;6.10;99.90;;;;;;5056228;28;20725;-78
2022/12/04 10:26:28;;;;;;;4.60;3.22;;;6.10;99.90;;;;;;5056320;28;20052;-78
2022/12/04 10:29:00;;;;;;;5.10;3.35;;;6.10;99.90;;;;;;5050044;28;20154;-78
2022/12/04 10:31:28;;;;;;;5.35;3.53;;;6.20;99.90;;;;;;5035411;28;20047;-77
2022/12/04 10:34:21;;;;;;;4.05;3.10;;;6.20;99.90;;;;;;5053671;28;20067;-77
2022/12/04 10:36:52;;;;;;;4.97;3.35;;;6.30;99.90;;;;;;5041666;28;20080;-77
2022/12/04 10:39:35;;;;;;;4.45;2.90;;;6.30;99.90;;;;;;5047789;28;20045;-77
2022/12/04 10:42:20;;;;;;;4.50;3.10;;;6.30;99.90;;;;;;5039126;28;20107;-77
2022/12/04 10:44:47;;;;;;;4.68;2.92;;;6.30;99.90;;;;;;5046565;28;20060;-77
2022/12/04 10:47:13;;;;;;;5.30;3.65;;;6.40;99.90;;;;;;5043685;28;20052;-77
2022/12/04 10:49:41;;;;;;;4.53;3.60;;;6.40;99.90;;;;;;5047311;28;20077;-78
2022/12/04 10:52:11;;;;;;;5.28;3.95;;;6.40;99.90;;;;;;5052892;28;20052;-78
2022/12/04 10:54:50;;;;;;;5.10;3.30;;;6.40;99.90;;;;;;5063200;28;20609;-77
2022/12/04 10:57:17;;;;;;;4.90;3.40;;;6.40;99.90;;;;;;5023803;28;20068;-77
2022/12/04 10:59:54;;;;;;;5.43;3.70;;;6.40;99.90;;;;;;5046951;28;20427;-78
2022/12/04 11:02:30;;;;;;;6.70;4.25;;;6.40;99.90;;;;;;5055587;28;20072;-78
2022/12/04 11:04:59;;;;;;;6.20;3.80;;;6.40;99.90;;;;;;5040569;28;20107;-78
2022/12/04 11:07:27;;;;;;;5.70;4.22;;;6.40;99.90;;;;;;5054057;28;20091;-78
2022/12/04 11:10:05;;;;;;;5.95;4.45;;;6.30;99.90;;;;;;5048943;28;20056;-78
2022/12/04 11:12:32;;;;;;;5.28;4.00;;;6.40;99.90;;;;;;5043882;28;20059;-78
2022/12/04 11:15:00;;;;;;;5.35;3.80;;;6.40;99.90;;;;;;5055749;28;20060;-78
2022/12/04 11:17:27;;;;;;;7.63;5.05;;;6.40;99.90;;;;;;5047623;28;20092;-78
2022/12/04 11:20:12;;;;;;;6.32;4.57;;;6.40;99.90;;;;;;5032757;28;20068;-78
2022/12/04 11:22:48;;;;;;;7.00;5.22;;;6.40;99.90;;;;;;5050745;28;20059;-78
2022/12/04 11:25:16;;;;;;;6.22;4.53;;;6.40;99.90;;;;;;5055889;28;20049;-78
2022/12/04 11:27:53;;;;;;;6.20;4.65;;;6.40;99.90;;;;;;5050653;28;20070;-78
2022/12/04 11:30:26;;;;;;;7.57;5.35;;;6.40;99.90;;;;;;5040936;28;20522;-77
2022/12/04 11:32:53;;;;;;;5.28;3.85;;;6.40;99.90;;;;;;5037292;28;20067;-76
2022/12/04 11:35:22;;;;;;;6.80;5.13;;;6.50;99.90;;;;;;5036437;28;20059;-76
2022/12/04 11:38:13;;;;;;;5.75;4.38;;;6.50;99.90;;;;;;5035782;28;20083;-77
2022/12/04 11:41:20;;;;;;;4.25;3.50;;;6.50;99.90;;;;;;5043482;28;20051;-76
2022/12/04 11:43:47;;;;;;;6.38;4.00;;;6.60;99.90;;;;;;5054965;28;20500;-76
2022/12/04 11:46:17;;;;;;;5.75;3.67;;;6.60;99.90;;;;;;5032715;28;20488;-76
2022/12/04 11:48:44;;;;;;;5.60;4.20;;;6.60;99.90;;;;;;5048255;28;20482;-76
2022/12/04 11:51:19;;;;;;;5.18;3.70;;;6.60;99.90;;;;;;5050594;28;20072;-76
2022/12/04 11:54:11;;;;;;;5.80;4.13;;;6.60;99.90;;;;;;5049688;28;20128;-76
2022/12/04 11:56:42;;;;;;;5.45;3.58;;;6.60;99.90;;;;;;5035114;28;20078;-76
2022/12/04 11:59:28;;;;;;;5.05;3.90;;;6.70;99.90;;;;;;5050996;28;20048;-76
2022/12/04 12:02:20;;;;;;;7.82;4.18;;;6.60;99.90;;;;;;5046318;28;20171;-76
2022/12/04 12:04:53;;;;;;;6.82;4.82;;;6.60;99.90;;;;;;5055479;28;20102;-76
2022/12/04 12:07:26;;;;;;;6.38;4.47;;;6.60;99.90;;;;;;5063018;28;20524;-76
2022/12/04 12:10:28;;;;;;;5.80;4.45;;;6.70;99.90;;;;;;5046547;28;20068;-79
2022/12/04 12:13:08;;;;;;;5.85;4.55;;;6.60;99.90;;;;;;5044703;28;20916;-76
2022/12/04 12:16:06;;;;;;;5.80;4.28;;;6.60;99.90;;;;;;5057409;28;20060;-77
2022/12/04 12:18:43;;;;;;;6.35;4.88;;;6.70;99.90;;;;;;5051248;28;20143;-77
2022/12/04 12:21:12;;;;;;;5.07;3.80;;;6.70;99.90;;;;;;5035047;28;20498;-77
2022/12/04 12:23:48;;;;;;;6.22;4.32;;;6.70;99.90;;;;;;5054426;28;20157;-76
2022/12/04 12:26:16;;;;;;;6.32;4.32;;;6.70;99.90;;;;;;5034742;28;20175;-77
2022/12/04 12:29:00;;;;;;;6.38;4.75;;;6.70;99.90;;;;;;5023829;28;20412;-76
2022/12/04 12:31:38;;;;;;;6.13;4.72;;;6.70;99.90;;;;;;5053609;28;20048;-77
2022/12/04 12:34:20;;;;;;;5.25;3.97;;;6.70;99.90;;;;;;5056999;28;20052;-77
2022/12/04 12:36:49;;;;;;;6.30;4.45;;;6.80;99.90;;;;;;5036354;28;20056;-77
2022/12/04 12:39:44;;;;;;;6.57;4.47;;;6.80;99.90;;;;;;5030017;28;20085;-77
2022/12/04 12:42:16;;;;;;;6.97;4.85;;;6.70;99.90;;;;;;5047115;28;20346;-77
2022/12/04 12:44:59;;;;;;;6.07;4.55;;;6.80;99.90;;;;;;5046965;28;20049;-76
2022/12/04 12:47:28;;;;;;;8.45;5.45;;;6.70;99.90;;;;;;5048396;28;20052;-77
2022/12/04 12:50:08;;;;;;;7.57;5.60;;;6.80;99.90;;;;;;5053552;28;20448;-77
2022/12/04 12:52:57;;;;;;;8.13;6.07;;;6.70;99.90;;;;;;5045642;28;20052;-79
2022/12/04 12:55:34;;;;;;;6.93;5.25;;;6.70;99.90;;;;;;5061637;28;20063;-76
2022/12/04 12:58:10;;;;;;;7.47;5.38;;;6.70;99.90;;;;;;5044999;28;20379;-77
2022/12/04 13:00:42;;;;;;;6.20;4.50;;;6.70;99.90;;;;;;5045345;28;20412;-76
2022/12/04 13:03:29;;;;;;;6.82;4.82;;;6.70;99.90;;;;;;5019676;28;20056;-76
2022/12/04 13:06:00;;;;;;;6.20;4.22;;;6.70;99.90;;;;;;5044684;28;20519;-76
2022/12/04 13:08:46;;;;;;;5.75;4.60;;;6.70;99.90;;;;;;5047433;28;20278;-76
2022/12/04 13:11:20;;;;;;;5.72;4.45;;;6.70;99.90;;;;;;5052414;28;20528;-76
2022/12/04 13:13:48;;;;;;;6.35;4.45;;;6.70;99.90;;;;;;5038840;28;20506;-76
2022/12/04 13:16:26;;;;;;;5.30;4.18;;;6.70;99.90;;;;;;5046921;28;20146;-76
2022/12/04 13:19:19;;;;;;;6.15;4.45;;;6.70;99.90;;;;;;5030861;28;20146;-76
2022/12/04 13:21:48;;;;;;;6.20;4.45;;;6.70;99.90;;;;;;5030794;28;20405;-76
2022/12/04 13:24:21;;;;;;;7.68;5.60;;;6.70;99.90;;;;;;5046510;28;20052;-76
2022/12/04 13:27:25;;;;;;;7.95;5.50;;;6.70;99.90;;;;;;5046432;28;20088;-76
2022/12/04 13:30:17;;;;;;;8.85;5.95;;;6.60;99.90;;;;;;5048576;28;20444;-76
2022/12/04 13:33:03;;;;;;;7.45;5.50;;;6.60;99.90;;;;;;5021984;28;20400;-80
2022/12/04 13:35:46;;;;;;;7.72;5.30;;;6.60;99.90;;;;;;5046382;28;20053;-77